Terminal Aerodrome Forecast
Issued by NWS

Home | Current Version | Previous Version | Text Only | Print | Product List | Glossary On
Versions: 1 2 3 4 5 6 7 8 9 10 11 12 13 14 15 16 17 18 19 20 21 22
000
FTUS43 KDLH 071256 AAA
TAFHIB
TAF AMD
KHIB 071256Z 0713/0812 20005KT 4SM -SN BKN012 OVC025 WS020/26040KT
      TEMPO 0713/0714 25014G20KT 1SM -SN OVC004
     FM071400 25010G18KT 3SM -SN OVC012
     FM071800 28014G22KT 3SM -SN BLSN OVC010
     FM072200 30015G26KT 3SM -SN BLSN OVC014
     FM080200 32016G28KT 5SM -SN BLSN OVC020=

USA.gov is the U.S. government's official web portal to all federal, state and local government web resources and services.